Terminal Aerodrome Forecast
Issued by NWS Louisville, KY

Home | Current Version | Previous Version | Text Only | Print | Product List | Glossary On
Versions: 1 2 3 4 5 6 7 8 9 10 11 12 13 14 15 16 17 18 19 20 21 22 23
000
FTUS43 KLMK 181601 AAB
TAFLEX
TAF AMD
KLEX 181601Z 1816/1912 27009KT P6SM FEW017 SCT040
      TEMPO 1816/1817 BKN017
     FM181900 28009KT P6SM SKC
     FM190300 21003KT P6SM SKC
      TEMPO 1911/1912 4SM BR=

USA.gov is the U.S. government's official web portal to all federal, state and local government web resources and services.